»·PEaware :: BSK1186 KBUR-KLAS

BSK1186 :: KBUR-KLAS

FLIGHT INFORMATION

Flight Status: Arrived
Operator:
Miami Air
More flights by this operator :: More flights under this callsign
Pilot: Ernesto F. (37009)
Aircraft: BOEING 737-300
(B733)
More flights by this aircraft type
Origin: KBUR Bob Hope-Burbank
United States
Destination: KLAS Harry Reid Intl
United States
More flights between these airports :: More routes between these airports
Route: SLAPP2 MISEN RNDRZ2
File this flight plan on PilotEdge
Remarks: RMK / SIMBRIEF
Altitude:
(Current/Filed)
31,000ft
Speed:
(Current/Filed)
443kts
Departed: 23-Sep-22 12:26 PM
Arrived: 23-Sep-22 01:16 PM
Distance/Time
Traveled:
193nm/0:50
Distance/Time
To Go:
Arrived

Flight Plot

Page will automatically refresh every two minutes.

Flight plan parsing failed; only flown route is shown


Map Options




Map Legend


Flown Route
Filed Route
Departure Airport
Arrival Airport
Navaid (VOR, NDB)
Fix

Horizontal Profiles

Position Reports

Time Latitude Longitude Heading Altitude Ground
Speed
23-Sep-22 12:03 34.200315 -118.366183 89 731ft 0kts
23-Sep-22 12:04 34.200315 -118.366183 89 731ft 0kts
23-Sep-22 12:05 34.200315 -118.366183 89 731ft 0kts
23-Sep-22 12:06 34.200315 -118.366183 89 731ft 0kts
23-Sep-22 12:07 34.200315 -118.366183 89 731ft 0kts
23-Sep-22 12:08 34.200315 -118.366183 89 731ft 0kts
23-Sep-22 12:09 34.200315 -118.366183 89 731ft 0kts
23-Sep-22 12:10 34.200315 -118.366183 89 731ft 0kts
23-Sep-22 12:11 34.200315 -118.366183 89 731ft 0kts
23-Sep-22 12:12 34.200315 -118.366183 89 731ft 0kts
23-Sep-22 12:13 34.200315 -118.366183 89 731ft 0kts
23-Sep-22 12:14 34.200315 -118.366183 89 731ft 0kts
23-Sep-22 12:15 34.200315 -118.366183 89 731ft 0kts
23-Sep-22 12:16 34.200315 -118.366183 89 731ft 0kts
23-Sep-22 12:17 34.200315 -118.366183 89 731ft 0kts
23-Sep-22 12:18 34.200315 -118.366183 89 731ft 0kts
23-Sep-22 12:19 34.200315 -118.366183 89 731ft 0kts
23-Sep-22 12:20 34.200315 -118.366183 89 731ft 0kts
23-Sep-22 12:21 34.200315 -118.366183 89 731ft 0kts
23-Sep-22 12:22 34.199101 -118.366080 245 729ft 4kts
23-Sep-22 12:23 34.198880 -118.368865 210 730ft 3kts
23-Sep-22 12:24 34.197902 -118.367852 90 728ft 36kts
23-Sep-22 12:25 34.193086 -118.321383 123 1576ft 196kts
23-Sep-22 12:26 34.152860 -118.338299 257 3813ft 207kts
23-Sep-22 12:27 34.126307 -118.408469 280 5346ft 260kts
23-Sep-22 12:28 34.184175 -118.437071 38 7186ft 271kts
23-Sep-22 12:29 34.248702 -118.388967 11 9659ft 293kts
23-Sep-22 12:30 34.331553 -118.368005 12 11619ft 328kts
23-Sep-22 12:31 34.428300 -118.341467 12 12671ft 375kts
23-Sep-22 12:32 34.517478 -118.280095 42 14928ft 385kts
23-Sep-22 12:33 34.600470 -118.195132 40 16998ft 397kts
23-Sep-22 12:34 34.678121 -118.099563 75 18883ft 402kts
23-Sep-22 12:35 34.692991 -117.963556 87 20675ft 411kts
23-Sep-22 12:36 34.700706 -117.823218 88 22378ft 421kts
23-Sep-22 12:37 34.707662 -117.678755 89 23887ft 432kts
23-Sep-22 12:38 34.713421 -117.531199 89 25275ft 442kts
23-Sep-22 12:39 34.746868 -117.384953 73 26589ft 455kts
23-Sep-22 12:40 34.785761 -117.237994 74 28256ft 453kts
23-Sep-22 12:41 34.824404 -117.092076 74 29794ft 450kts
23-Sep-22 12:42 34.862679 -116.946804 73 31062ft 450kts
23-Sep-22 12:43 34.900744 -116.801639 73 31108ft 447kts
23-Sep-22 12:44 34.953434 -116.664590 52 31106ft 456kts
23-Sep-22 12:45 35.028009 -116.536191 55 29125ft 470kts
23-Sep-22 12:46 35.102232 -116.404448 53 25604ft 464kts
23-Sep-22 12:47 35.189039 -116.291898 46 22531ft 444kts
23-Sep-22 12:48 35.270616 -116.183052 48 19750ft 421kts
23-Sep-22 12:49 35.347428 -116.077647 48 19095ft 415kts
23-Sep-22 12:50 35.424582 -115.971565 48 18513ft 412kts
23-Sep-22 12:51 35.500318 -115.867156 48 17716ft 407kts
23-Sep-22 12:52 35.579204 -115.757827 48 16727ft 432kts
23-Sep-22 12:53 35.659527 -115.649021 47 15522ft 423kts
23-Sep-22 12:54 35.739547 -115.544367 33 14294ft 414kts
23-Sep-22 12:55 35.839760 -115.477523 28 13116ft 405kts
23-Sep-22 12:56 35.937485 -115.409250 28 11906ft 398kts
23-Sep-22 12:57 36.025913 -115.332241 64 11080ft 392kts
23-Sep-22 12:58 36.013645 -115.216543 102 10984ft 319kts
23-Sep-22 12:59 36.002928 -115.109948 94 9648ft 298kts
23-Sep-22 13:00 35.999066 -115.012537 92 8765ft 268kts
23-Sep-22 13:01 36.021143 -114.938753 5 7853ft 235kts
23-Sep-22 13:02 36.072840 -114.970374 279 6109ft 222kts
23-Sep-22 13:03 36.073465 -115.046569 268 4290ft 207kts
23-Sep-22 13:04 36.073465 -115.109620 268 3838ft 161kts
23-Sep-22 13:05 36.051923 -115.167492 203 5271ft 225kts
23-Sep-22 13:06 35.985670 -115.172811 166 7072ft 253kts
23-Sep-22 13:07 35.956421 -115.102321 91 7142ft 250kts
23-Sep-22 13:08 35.976484 -115.028833 36 7103ft 248kts
23-Sep-22 13:09 36.000655 -114.959807 94 6981ft 239kts
23-Sep-22 13:10 36.037627 -114.907453 350 6060ft 214kts
23-Sep-22 13:11 36.073330 -114.954949 275 4908ft 193kts
23-Sep-22 13:12 36.073465 -115.020139 268 3883ft 191kts
23-Sep-22 13:13 36.073564 -115.085678 270 2892ft 194kts
23-Sep-22 13:14 36.073602 -115.143982 270 2096ft 129kts
23-Sep-22 13:15 36.074360 -115.161262 355 2162ft 10kts
23-Sep-22 13:16 36.077952 -115.161001 66 2152ft 8kts

Navigation Log

Ident Type
Flight plan parsing failed, navigation log unavailable